Time;durP1;ratioP1;P1;durP2;ratioP2;P2;SDS_P1;SDS_P2;PMS_P1;PMS_P2;Temp;Humidity;BMP_temperature;BMP_pressure;BME280_temperature;BME280_humidity;BME280_pressure;Samples;Min_cycle;Max_cycle;Signal;HPM_P1;HPM_P2
2022/10/06 00:02:28;;;;;;;2.00;1.90;;;12.10;99.90;;;;;;5094452;28;20199;-49
2022/10/06 00:04:55;;;;;;;1.60;1.50;;;12.00;99.90;;;;;;5094197;28;20638;-49
2022/10/06 00:07:22;;;;;;;1.67;1.67;;;12.00;99.90;;;;;;5087943;28;20205;-49
2022/10/06 00:09:49;;;;;;;1.87;1.77;;;11.90;99.90;;;;;;5084272;28;20227;-48
2022/10/06 00:12:16;;;;;;;3.10;1.93;;;11.80;99.90;;;;;;5090879;28;20578;-48
2022/10/06 00:14:43;;;;;;;1.80;1.70;;;11.80;99.90;;;;;;5094357;28;20216;-48
2022/10/06 00:17:10;;;;;;;3.53;2.53;;;11.80;99.90;;;;;;5095111;28;20197;-48
2022/10/06 00:19:38;;;;;;;2.37;2.27;;;11.70;99.90;;;;;;5103722;28;20216;-50
2022/10/06 00:22:05;;;;;;;4.30;2.90;;;11.80;99.90;;;;;;5101830;28;20204;-50
2022/10/06 00:24:33;;;;;;;4.67;2.40;;;11.70;99.90;;;;;;5088543;28;20658;-48
2022/10/06 00:27:00;;;;;;;3.93;1.97;;;11.70;99.90;;;;;;5093872;28;20210;-47
2022/10/06 00:29:27;;;;;;;2.20;2.10;;;11.70;99.90;;;;;;5091146;28;20223;-49
2022/10/06 00:31:54;;;;;;;2.53;2.10;;;11.70;99.90;;;;;;5094082;28;20203;-48
2022/10/06 00:34:21;;;;;;;2.77;1.90;;;11.80;99.90;;;;;;5093678;28;20223;-48
2022/10/06 00:36:49;;;;;;;3.33;1.60;;;11.80;99.90;;;;;;5089085;28;20935;-49
2022/10/06 00:39:16;;;;;;;3.50;2.40;;;11.80;99.90;;;;;;5093607;28;20215;-48
2022/10/06 00:41:43;;;;;;;2.70;1.60;;;11.70;99.90;;;;;;5093829;28;20252;-49
2022/10/06 00:44:10;;;;;;;4.50;2.20;;;11.70;99.90;;;;;;5092442;28;20676;-48
2022/10/06 00:46:43;;;;;;;3.03;1.90;;;11.70;99.90;;;;;;5090053;28;20677;-49
2022/10/06 00:49:16;;;;;;;2.53;2.13;;;11.60;99.90;;;;;;5088411;28;20660;-50
2022/10/06 00:51:48;;;;;;;1.83;1.73;;;11.60;99.90;;;;;;5083858;28;20212;-49
2022/10/06 00:54:17;;;;;;;2.43;1.93;;;11.50;99.90;;;;;;5093366;28;20215;-49
2022/10/06 00:56:45;;;;;;;2.27;1.93;;;11.50;99.90;;;;;;5093693;28;20211;-49
2022/10/06 00:59:13;;;;;;;0.80;0.80;;;11.50;99.90;;;;;;5090053;28;20262;-49
2022/10/06 01:01:44;;;;;;;4.73;1.47;;;11.60;99.90;;;;;;5083745;28;20203;-49
2022/10/06 01:04:14;;;;;;;1.53;1.43;;;11.80;99.90;;;;;;5092244;28;20262;-48
2022/10/06 01:06:44;;;;;;;1.13;1.07;;;11.90;99.90;;;;;;5090294;28;20622;-49
2022/10/06 01:09:11;;;;;;;1.47;0.80;;;12.00;99.90;;;;;;5093444;28;20217;-48
2022/10/06 01:11:40;;;;;;;1.10;1.00;;;12.00;99.90;;;;;;5093407;28;20254;-48
2022/10/06 01:14:07;;;;;;;3.80;0.87;;;12.00;99.90;;;;;;5089090;28;20296;-49
2022/10/06 01:16:37;;;;;;;0.77;0.77;;;12.00;99.90;;;;;;5093170;28;20324;-48
2022/10/06 01:19:09;;;;;;;1.73;1.27;;;12.00;99.90;;;;;;5092015;28;20200;-49
2022/10/06 01:21:40;;;;;;;2.73;2.20;;;12.00;99.90;;;;;;5092965;28;20245;-48
2022/10/06 01:24:08;;;;;;;2.67;1.90;;;12.00;99.90;;;;;;5087757;28;20341;-49
2022/10/06 01:26:39;;;;;;;2.07;1.97;;;11.90;99.90;;;;;;5082762;28;20674;-49
2022/10/06 01:29:06;;;;;;;3.70;1.70;;;11.90;99.90;;;;;;5082064;28;20668;-49
2022/10/06 01:31:33;;;;;;;1.60;1.60;;;11.80;99.90;;;;;;5092875;28;20256;-48
2022/10/06 01:34:00;;;;;;;3.80;1.67;;;11.70;99.90;;;;;;5092517;28;20280;-49
2022/10/06 01:36:27;;;;;;;2.47;1.93;;;11.60;99.90;;;;;;5087821;28;20658;-48
2022/10/06 01:38:54;;;;;;;1.83;1.73;;;11.50;99.90;;;;;;5087993;28;20204;-48
2022/10/06 01:41:23;;;;;;;1.20;1.20;;;11.40;99.90;;;;;;5092498;28;20195;-49
2022/10/06 01:43:50;;;;;;;3.10;1.63;;;11.30;99.90;;;;;;5084631;28;20248;-49
2022/10/06 01:46:17;;;;;;;1.73;1.63;;;11.20;99.90;;;;;;5086723;28;20252;-49
2022/10/06 01:48:44;;;;;;;2.07;1.43;;;11.20;99.90;;;;;;5092676;28;20199;-48
2022/10/06 01:51:14;;;;;;;2.20;1.30;;;11.20;99.90;;;;;;5089210;28;20234;-48
2022/10/06 01:53:42;;;;;;;2.20;0.90;;;11.20;99.90;;;;;;5083997;28;20603;-48
2022/10/06 01:56:09;;;;;;;2.47;1.10;;;11.20;99.90;;;;;;5090380;28;20625;-49
2022/10/06 01:58:40;;;;;;;1.13;1.03;;;11.20;99.90;;;;;;5091349;28;20199;-48
2022/10/06 02:01:09;;;;;;;1.97;1.00;;;11.20;99.90;;;;;;5082370;28;20812;-48
2022/10/06 02:03:40;;;;;;;3.30;1.03;;;11.30;99.90;;;;;;5089861;28;20252;-48
2022/10/06 02:06:08;;;;;;;1.03;0.93;;;11.30;99.90;;;;;;5087785;28;20263;-48
2022/10/06 02:08:35;;;;;;;0.97;0.97;;;11.20;99.90;;;;;;5092449;28;20199;-48
2022/10/06 02:11:05;;;;;;;0.93;0.90;;;11.20;99.90;;;;;;5092399;28;20228;-49
2022/10/06 02:13:32;;;;;;;2.10;1.10;;;11.20;99.90;;;;;;5081595;28;20218;-49
2022/10/06 02:16:01;;;;;;;1.17;0.83;;;11.20;99.90;;;;;;5091824;28;20249;-49
2022/10/06 02:18:28;;;;;;;2.73;0.90;;;11.10;99.90;;;;;;5084321;28;20554;-49
2022/10/06 02:20:55;;;;;;;1.00;1.00;;;11.10;99.90;;;;;;5092345;28;20225;-48
2022/10/06 02:23:22;;;;;;;2.70;1.30;;;11.00;99.90;;;;;;5091979;28;20242;-48
2022/10/06 02:25:49;;;;;;;1.20;1.20;;;11.20;99.90;;;;;;5087475;28;20208;-49
2022/10/06 02:28:16;;;;;;;1.43;1.33;;;11.30;99.90;;;;;;5091710;28;20256;-50
2022/10/06 02:30:43;;;;;;;1.67;1.67;;;11.30;99.90;;;;;;5088758;28;20226;-48
2022/10/06 02:33:12;;;;;;;4.17;1.80;;;11.40;99.90;;;;;;5089670;28;20192;-49
2022/10/06 02:35:41;;;;;;;1.40;1.30;;;11.50;99.90;;;;;;5092022;28;20712;-49
2022/10/06 02:38:08;;;;;;;1.70;1.60;;;11.30;99.90;;;;;;5092046;28;20751;-49
2022/10/06 02:40:35;;;;;;;1.30;1.30;;;11.10;99.90;;;;;;5082528;28;20636;-48
2022/10/06 02:43:02;;;;;;;1.27;1.27;;;11.00;99.90;;;;;;5078584;28;20248;-48
2022/10/06 02:45:30;;;;;;;2.10;1.30;;;11.00;99.90;;;;;;5091687;28;20195;-48
2022/10/06 02:47:57;;;;;;;3.70;1.60;;;10.90;99.90;;;;;;5092103;28;20217;-49
2022/10/06 02:50:25;;;;;;;1.30;1.30;;;10.80;99.90;;;;;;5092111;28;20218;-48
2022/10/06 02:52:52;;;;;;;1.00;1.00;;;10.80;99.90;;;;;;5090409;28;20260;-49
2022/10/06 02:55:19;;;;;;;6.40;2.37;;;10.70;99.90;;;;;;5087565;28;20693;-48
2022/10/06 02:57:46;;;;;;;2.10;1.00;;;10.60;99.90;;;;;;5087745;28;20212;-49
2022/10/06 03:00:14;;;;;;;1.40;1.40;;;10.60;99.90;;;;;;5091068;28;20222;-49
2022/10/06 03:02:41;;;;;;;1.40;1.30;;;10.60;99.90;;;;;;5091745;28;20195;-48
2022/10/06 03:05:08;;;;;;;6.00;1.67;;;10.70;99.90;;;;;;5091926;28;20261;-50
2022/10/06 03:07:37;;;;;;;1.40;1.30;;;10.60;99.90;;;;;;5089863;28;20660;-49
2022/10/06 03:10:04;;;;;;;2.70;1.70;;;10.60;99.90;;;;;;5090387;28;20223;-48
2022/10/06 03:12:31;;;;;;;1.23;1.23;;;10.60;99.90;;;;;;5090164;28;20204;-49
2022/10/06 03:14:58;;;;;;;2.03;1.87;;;10.50;99.90;;;;;;5091503;28;20603;-49
2022/10/06 03:17:25;;;;;;;3.10;1.27;;;10.50;99.90;;;;;;5089338;28;20196;-49
2022/10/06 03:19:53;;;;;;;1.37;1.27;;;10.50;99.90;;;;;;5089840;28;20226;-48
2022/10/06 03:22:20;;;;;;;1.10;1.10;;;10.50;99.90;;;;;;5091582;28;20639;-48
2022/10/06 03:24:48;;;;;;;1.50;1.43;;;10.50;99.90;;;;;;5092481;28;20206;-49
2022/10/06 03:27:15;;;;;;;1.67;1.57;;;10.50;99.90;;;;;;5091415;28;20567;-50
2022/10/06 03:29:42;;;;;;;1.50;1.40;;;10.60;99.90;;;;;;5093648;28;20215;-48
2022/10/06 03:32:09;;;;;;;2.10;1.27;;;10.60;99.90;;;;;;5087882;28;20203;-48
2022/10/06 03:34:37;;;;;;;3.33;1.40;;;10.60;99.90;;;;;;5084165;28;20889;-49
2022/10/06 03:37:04;;;;;;;4.53;1.63;;;10.60;99.90;;;;;;5093607;28;20227;-49
2022/10/06 03:39:32;;;;;;;1.40;1.30;;;10.60;99.90;;;;;;5094899;28;20281;-48
2022/10/06 03:42:00;;;;;;;1.00;1.00;;;10.50;99.90;;;;;;5093793;28;20228;-48
2022/10/06 03:44:27;;;;;;;2.40;1.10;;;10.50;99.90;;;;;;5090774;28;20203;-48
2022/10/06 03:46:54;;;;;;;1.70;1.60;;;10.50;99.90;;;;;;5094175;28;20199;-48
2022/10/06 03:49:21;;;;;;;1.00;1.00;;;10.50;99.90;;;;;;5092702;28;20563;-48
2022/10/06 03:51:48;;;;;;;2.67;1.10;;;10.50;99.90;;;;;;5093489;28;20218;-48
2022/10/06 03:54:16;;;;;;;1.60;1.20;;;10.50;99.90;;;;;;5094195;28;20591;-49
2022/10/06 03:56:43;;;;;;;1.63;1.47;;;10.50;99.90;;;;;;5089459;28;20212;-48
2022/10/06 03:59:16;;;;;;;3.20;2.07;;;10.50;99.90;;;;;;5089957;28;20231;-48
2022/10/06 04:01:44;;;;;;;1.87;1.47;;;10.50;99.90;;;;;;5094600;28;20237;-49
2022/10/06 04:04:12;;;;;;;1.30;1.20;;;10.50;99.90;;;;;;5092029;28;20209;-49
2022/10/06 04:06:41;;;;;;;4.20;1.30;;;10.40;99.90;;;;;;5093062;28;20252;-48
2022/10/06 04:09:10;;;;;;;0.83;0.83;;;10.40;99.90;;;;;;5094567;28;20262;-48
2022/10/06 04:11:39;;;;;;;1.00;1.00;;;10.40;99.90;;;;;;5092017;28;20212;-48
2022/10/06 04:14:08;;;;;;;0.93;0.93;;;10.40;99.90;;;;;;5094125;28;20200;-48
2022/10/06 04:16:37;;;;;;;1.30;1.20;;;10.30;99.90;;;;;;5094247;28;20298;-49
2022/10/06 04:19:08;;;;;;;2.00;1.40;;;10.30;99.90;;;;;;5091762;28;20194;-49
2022/10/06 04:21:37;;;;;;;1.30;1.30;;;10.30;99.90;;;;;;5084989;28;20211;-48
2022/10/06 04:24:06;;;;;;;1.17;1.17;;;10.40;99.90;;;;;;5085637;28;20207;-48
2022/10/06 04:26:37;;;;;;;1.40;1.30;;;10.40;99.90;;;;;;5106382;28;20569;-48
2022/10/06 04:29:04;;;;;;;4.57;1.40;;;10.40;99.90;;;;;;5104794;28;20205;-48
2022/10/06 04:31:33;;;;;;;1.83;1.70;;;10.40;99.90;;;;;;5083380;28;20204;-50
2022/10/06 04:34:01;;;;;;;2.63;1.43;;;10.40;99.90;;;;;;5092463;28;20195;-49
2022/10/06 04:36:31;;;;;;;1.43;1.33;;;10.40;99.90;;;;;;5093156;28;20211;-48
2022/10/06 04:39:00;;;;;;;3.63;1.13;;;10.40;99.90;;;;;;5093816;28;20621;-49
2022/10/06 04:41:30;;;;;;;3.03;1.10;;;10.40;99.90;;;;;;5089413;28;20211;-48
2022/10/06 04:43:57;;;;;;;2.53;1.57;;;10.30;99.90;;;;;;5078627;28;20206;-48
2022/10/06 04:46:25;;;;;;;1.33;1.33;;;10.30;99.90;;;;;;5080798;28;20198;-48
2022/10/06 04:48:53;;;;;;;1.37;1.27;;;10.30;99.90;;;;;;5088356;28;20211;-47
2022/10/06 04:51:23;;;;;;;2.00;1.90;;;10.30;99.90;;;;;;5090810;28;20600;-48
2022/10/06 04:53:51;;;;;;;1.60;1.50;;;10.30;99.90;;;;;;5092645;28;20206;-48
2022/10/06 04:56:20;;;;;;;4.63;2.07;;;10.30;99.90;;;;;;5088858;28;20707;-49
2022/10/06 04:58:48;;;;;;;3.07;1.60;;;10.20;99.90;;;;;;5091249;28;20202;-48
2022/10/06 05:01:17;;;;;;;1.57;1.47;;;10.20;99.90;;;;;;5093812;28;20207;-48
2022/10/06 05:03:48;;;;;;;1.70;1.60;;;10.20;99.90;;;;;;5090165;28;20199;-48
2022/10/06 05:06:18;;;;;;;1.30;1.20;;;10.20;99.90;;;;;;5092624;28;20277;-49
2022/10/06 05:08:49;;;;;;;3.80;1.87;;;10.20;99.90;;;;;;5092981;28;20208;-49
2022/10/06 05:11:17;;;;;;;3.43;1.83;;;10.20;99.90;;;;;;5090983;28;20203;-49
2022/10/06 05:13:45;;;;;;;2.00;1.90;;;10.20;99.90;;;;;;5085136;28;20202;-48
2022/10/06 05:16:14;;;;;;;4.37;2.07;;;10.10;99.90;;;;;;5093464;28;20588;-48
2022/10/06 05:18:48;;;;;;;2.20;1.60;;;10.10;99.90;;;;;;5094569;28;20238;-49
2022/10/06 05:21:17;;;;;;;4.00;2.13;;;10.10;99.90;;;;;;5086571;28;20211;-48
2022/10/06 05:23:45;;;;;;;1.57;1.47;;;10.00;99.90;;;;;;5088812;28;20204;-49
2022/10/06 05:26:16;;;;;;;2.40;2.20;;;10.00;99.90;;;;;;5092584;28;20197;-48
2022/10/06 05:28:43;;;;;;;4.37;3.07;;;9.90;99.90;;;;;;5083083;28;20298;-49
2022/10/06 05:31:12;;;;;;;3.93;2.83;;;10.00;99.90;;;;;;5078586;28;20218;-49
2022/10/06 05:33:41;;;;;;;3.90;2.73;;;10.00;99.90;;;;;;5080399;28;20250;-55
2022/10/06 05:36:12;;;;;;;4.53;2.47;;;10.00;99.90;;;;;;5083597;28;20216;-49
2022/10/06 05:38:40;;;;;;;2.57;2.30;;;9.90;99.90;;;;;;5084703;28;20202;-48
2022/10/06 05:41:10;;;;;;;8.60;5.23;;;10.00;99.90;;;;;;5090349;28;20214;-49
2022/10/06 05:43:43;;;;;;;3.87;3.57;;;10.00;99.90;;;;;;5086025;28;20726;-48
2022/10/06 05:46:16;;;;;;;2.83;2.63;;;10.00;99.90;;;;;;5089778;28;20240;-48
2022/10/06 05:48:46;;;;;;;3.33;3.13;;;10.10;99.90;;;;;;5091018;28;20280;-48
2022/10/06 05:51:14;;;;;;;3.30;3.00;;;10.10;99.90;;;;;;5092904;28;20226;-48
2022/10/06 05:53:43;;;;;;;4.23;3.40;;;10.10;99.90;;;;;;5091039;28;20241;-48
2022/10/06 05:56:12;;;;;;;9.03;4.90;;;10.20;99.90;;;;;;5081821;28;20267;-48
2022/10/06 05:58:44;;;;;;;10.07;3.90;;;10.20;99.90;;;;;;5092229;28;20200;-48
2022/10/06 06:01:13;;;;;;;5.23;4.50;;;10.30;99.90;;;;;;5092132;28;20215;-48
2022/10/06 06:03:41;;;;;;;7.77;3.70;;;10.30;99.90;;;;;;5082614;28;20622;-48
2022/10/06 06:06:16;;;;;;;4.53;2.63;;;10.40;99.90;;;;;;5092609;28;20750;-48
2022/10/06 06:08:44;;;;;;;5.50;3.23;;;10.50;99.90;;;;;;5092431;28;20267;-48
2022/10/06 06:11:11;;;;;;;8.80;4.07;;;10.60;99.90;;;;;;5104254;28;20220;-48
2022/10/06 06:13:40;;;;;;;3.47;3.20;;;10.50;99.90;;;;;;5073007;28;20277;-48
2022/10/06 06:16:13;;;;;;;4.20;3.80;;;10.50;99.90;;;;;;5092199;28;20223;-48
2022/10/06 06:18:40;;;;;;;6.13;3.20;;;10.60;99.90;;;;;;5092353;28;20293;-48
2022/10/06 06:21:08;;;;;;;3.37;3.17;;;10.70;99.90;;;;;;5091620;28;20270;-48
2022/10/06 06:23:39;;;;;;;5.37;2.60;;;10.70;99.90;;;;;;5092635;28;20204;-49
2022/10/06 06:26:08;;;;;;;4.57;2.20;;;10.70;99.90;;;;;;5091830;28;20196;-49
2022/10/06 06:28:39;;;;;;;3.03;2.20;;;10.70;99.90;;;;;;5085412;28;20211;-49
2022/10/06 06:31:09;;;;;;;4.77;2.50;;;10.80;99.90;;;;;;5071981;28;20234;-49
2022/10/06 06:33:38;;;;;;;3.30;1.63;;;10.80;99.90;;;;;;5072036;28;20225;-48
2022/10/06 06:36:13;;;;;;;3.37;2.03;;;11.00;99.90;;;;;;5071879;28;20228;-48
2022/10/06 06:38:40;;;;;;;3.60;2.27;;;11.10;99.90;;;;;;5080669;28;20286;-48
2022/10/06 06:41:14;;;;;;;2.53;1.87;;;11.20;99.90;;;;;;5092102;28;20661;-48
2022/10/06 06:43:41;;;;;;;2.27;2.07;;;11.30;99.90;;;;;;5091829;28;20958;-48
2022/10/06 06:46:10;;;;;;;2.47;2.37;;;11.40;99.90;;;;;;5081822;28;20210;-49
2022/10/06 06:48:40;;;;;;;6.80;2.60;;;11.60;99.90;;;;;;5080373;28;20197;-48
2022/10/06 06:51:10;;;;;;;6.20;3.20;;;11.70;99.90;;;;;;5087949;28;20277;-48
2022/10/06 06:53:40;;;;;;;7.27;4.30;;;11.70;99.90;;;;;;5080475;28;20198;-49
2022/10/06 06:56:09;;;;;;;4.23;2.27;;;11.80;99.90;;;;;;5084136;28;20219;-48
2022/10/06 06:58:38;;;;;;;7.60;2.80;;;11.90;99.90;;;;;;5092062;28;20691;-48
2022/10/06 07:01:06;;;;;;;3.03;2.70;;;12.00;99.90;;;;;;5095506;28;20218;-49
2022/10/06 07:03:35;;;;;;;2.00;1.70;;;12.10;99.90;;;;;;5092078;28;20205;-47
2022/10/06 07:06:07;;;;;;;3.20;2.03;;;12.30;99.90;;;;;;5075368;28;20280;-48
2022/10/06 07:08:41;;;;;;;2.67;2.13;;;12.30;99.90;;;;;;5089997;28;20202;-49
2022/10/06 07:11:13;;;;;;;1.63;1.53;;;12.40;99.90;;;;;;5095300;28;20253;-48
2022/10/06 07:13:41;;;;;;;3.07;1.67;;;12.60;99.90;;;;;;5094524;28;20206;-48
2022/10/06 07:27:10;;;;;;;4.63;2.90;;;13.10;99.90;;;;;;5074986;28;20693;-49
2022/10/06 07:29:37;;;;;;;3.00;2.70;;;13.10;99.90;;;;;;5077990;28;20223;-48
2022/10/06 07:32:04;;;;;;;4.20;1.87;;;13.20;99.90;;;;;;5087203;28;20197;-48
2022/10/06 07:34:32;;;;;;;3.37;1.70;;;13.30;99.90;;;;;;5094895;28;20210;-48
2022/10/06 07:36:59;;;;;;;2.27;1.97;;;13.30;99.90;;;;;;5087908;28;20758;-48
2022/10/06 07:39:26;;;;;;;1.97;1.77;;;13.40;99.90;;;;;;5095014;28;20220;-48
2022/10/06 07:41:53;;;;;;;6.17;1.80;;;13.50;99.90;;;;;;5095334;28;20203;-48
2022/10/06 07:44:20;;;;;;;2.57;1.80;;;13.50;99.90;;;;;;5095243;28;20585;-48
2022/10/06 07:46:47;;;;;;;3.10;1.73;;;13.60;99.90;;;;;;5096033;28;20237;-48
2022/10/06 07:49:16;;;;;;;2.20;1.70;;;13.60;99.90;;;;;;5077799;28;20215;-48
2022/10/06 07:51:44;;;;;;;2.77;2.57;;;13.70;99.90;;;;;;5074364;28;20213;-49
2022/10/06 07:54:11;;;;;;;1.97;1.83;;;13.80;99.90;;;;;;5085054;28;20622;-48
2022/10/06 07:56:38;;;;;;;3.10;2.13;;;13.90;99.90;;;;;;5094763;28;20747;-48
2022/10/06 07:59:05;;;;;;;3.63;1.53;;;14.00;99.90;;;;;;5094256;28;20204;-49
2022/10/06 08:01:32;;;;;;;4.73;1.40;;;13.90;99.90;;;;;;5094439;28;20660;-48
2022/10/06 08:04:01;;;;;;;3.87;1.20;;;14.00;99.90;;;;;;5092750;28;20674;-49
2022/10/06 08:06:28;;;;;;;1.23;1.23;;;14.00;99.90;;;;;;5082727;28;20201;-49
2022/10/06 08:08:56;;;;;;;1.40;1.30;;;14.10;99.90;;;;;;5093222;28;20265;-48
2022/10/06 08:11:23;;;;;;;2.20;1.40;;;14.10;99.90;;;;;;5092981;28;20196;-49
2022/10/06 08:13:50;;;;;;;1.73;1.23;;;14.20;99.90;;;;;;5093876;28;20244;-49
2022/10/06 08:16:19;;;;;;;1.63;1.33;;;14.30;99.90;;;;;;5094193;28;20224;-49
2022/10/06 08:18:52;;;;;;;1.80;1.70;;;14.40;99.90;;;;;;5087760;28;20228;-48
2022/10/06 08:21:20;;;;;;;3.28;1.40;;;14.50;99.90;;;;;;5093849;28;20502;-48
2022/10/06 08:23:49;;;;;;;4.23;1.37;;;14.60;99.90;;;;;;5093727;28;20200;-50
2022/10/06 08:26:20;;;;;;;5.90;1.40;;;14.70;99.90;;;;;;5093773;28;20799;-49
2022/10/06 08:28:48;;;;;;;6.23;1.63;;;14.90;99.90;;;;;;5088596;28;20255;-48
2022/10/06 08:31:17;;;;;;;1.53;1.43;;;15.00;99.90;;;;;;5093594;28;20716;-48
2022/10/06 08:33:45;;;;;;;0.97;0.97;;;15.10;99.90;;;;;;5092685;28;20197;-48
2022/10/06 08:36:14;;;;;;;1.23;1.13;;;15.30;99.90;;;;;;5084839;28;20216;-48
2022/10/06 08:38:41;;;;;;;2.80;1.30;;;15.50;99.90;;;;;;5093337;28;20283;-48
2022/10/06 08:41:21;;;;;;;1.87;1.20;;;16.20;99.90;;;;;;5093757;28;20216;-48
2022/10/06 08:43:53;;;;;;;1.23;1.10;;;17.30;99.90;;;;;;5093456;28;20200;-49
2022/10/06 08:46:24;;;;;;;2.67;1.13;;;18.40;99.90;;;;;;5091690;28;20201;-49
2022/10/06 08:48:51;;;;;;;6.00;1.70;;;19.30;99.90;;;;;;5093124;28;20200;-48
2022/10/06 08:51:30;;;;;;;0.97;0.97;;;20.10;99.90;;;;;;5091518;28;20208;-49
2022/10/06 08:54:05;;;;;;;3.60;0.77;;;20.90;99.90;;;;;;5092803;28;20204;-48
2022/10/06 08:56:43;;;;;;;3.90;1.43;;;21.30;99.90;;;;;;5092992;28;20705;-48
2022/10/06 08:59:11;;;;;;;4.43;1.27;;;21.70;99.90;;;;;;5087796;28;20224;-49
2022/10/06 09:01:44;;;;;;;4.37;1.23;;;22.20;99.90;;;;;;5088864;28;20197;-49
2022/10/06 09:04:21;;;;;;;1.00;1.00;;;22.40;99.90;;;;;;5090217;28;20204;-48
2022/10/06 09:06:58;;;;;;;0.80;0.80;;;22.40;99.90;;;;;;5091327;28;20192;-48
2022/10/06 09:09:42;;;;;;;3.07;1.20;;;22.50;99.90;;;;;;5092869;28;20220;-49
2022/10/06 09:12:19;;;;;;;4.20;1.10;;;22.70;99.90;;;;;;5085158;28;20257;-48
2022/10/06 09:14:51;;;;;;;1.40;1.27;;;22.70;99.90;;;;;;5092602;28;20716;-49
2022/10/06 09:17:25;;;;;;;1.90;1.10;;;23.00;99.90;;;;;;5092950;28;20216;-49
2022/10/06 09:19:56;;;;;;;2.40;1.00;;;23.20;99.90;;;;;;5091057;28;20315;-49
2022/10/06 09:22:24;;;;;;;2.00;1.23;;;23.40;99.90;;;;;;5092476;28;20207;-49
2022/10/06 09:24:56;;;;;;;1.83;0.90;;;23.80;99.90;;;;;;5090068;28;20204;-50
2022/10/06 09:27:31;;;;;;;1.80;1.02;;;24.20;99.90;;;;;;5089539;28;20551;-49
2022/10/06 09:29:58;;;;;;;1.63;0.97;;;24.30;99.90;;;;;;5092330;28;20598;-49
2022/10/06 09:32:28;;;;;;;2.73;0.97;;;24.00;99.90;;;;;;5092318;28;20856;-48
2022/10/06 09:34:58;;;;;;;1.03;1.03;;;24.00;99.90;;;;;;5088591;28;20204;-49
2022/10/06 09:37:26;;;;;;;1.47;1.47;;;24.40;99.90;;;;;;5087274;28;20317;-49
2022/10/06 09:39:54;;;;;;;1.53;1.13;;;24.50;99.90;;;;;;5091979;28;20216;-49
2022/10/06 09:42:26;;;;;;;1.73;1.13;;;24.40;99.90;;;;;;5092150;28;20639;-49
2022/10/06 09:45:01;;;;;;;0.93;0.93;;;24.60;99.90;;;;;;5091793;28;20734;-50
2022/10/06 09:47:39;;;;;;;1.90;0.90;;;24.60;99.90;;;;;;5092032;28;20661;-49
2022/10/06 09:50:20;;;;;;;0.87;0.87;;;24.70;99.90;;;;;;5080325;28;20693;-49
2022/10/06 09:53:04;;;;;;;1.57;0.80;;;24.80;99.90;;;;;;5085829;28;20215;-49
2022/10/06 09:55:40;;;;;;;4.80;1.50;;;25.30;99.90;;;;;;5091682;28;20201;-49
2022/10/06 09:58:22;;;;;;;1.07;0.90;;;25.10;99.90;;;;;;5091994;28;20245;-49
2022/10/06 10:00:53;;;;;;;0.80;0.80;;;25.40;99.90;;;;;;5085778;28;20230;-49
2022/10/06 10:03:22;;;;;;;0.63;0.60;;;26.00;99.90;;;;;;5084495;28;20296;-49
2022/10/06 10:05:51;;;;;;;1.77;1.13;;;25.90;99.90;;;;;;5082434;28;20197;-49
2022/10/06 10:08:22;;;;;;;1.50;1.40;;;25.80;99.90;;;;;;5085548;28;20196;-50
2022/10/06 10:10:49;;;;;;;2.93;1.93;;;25.90;99.90;;;;;;5085213;28;20227;-49
2022/10/06 10:13:24;;;;;;;4.83;1.80;;;26.00;99.90;;;;;;5091469;28;20253;-49
2022/10/06 10:15:55;;;;;;;1.57;1.57;;;25.80;99.90;;;;;;5091453;28;20294;-50
2022/10/06 10:18:27;;;;;;;5.03;1.90;;;26.20;99.90;;;;;;5082638;28;20204;-49
2022/10/06 10:20:57;;;;;;;2.53;2.33;;;26.30;99.90;;;;;;5088088;28;20277;-49
2022/10/06 10:23:29;;;;;;;2.33;2.03;;;26.00;99.90;;;;;;5091174;28;20247;-50
2022/10/06 10:26:16;;;;;;;4.03;2.00;;;25.50;99.90;;;;;;5091449;28;20291;-49
2022/10/06 10:29:01;;;;;;;2.67;2.37;;;25.20;99.90;;;;;;5084408;28;20253;-49
2022/10/06 10:31:35;;;;;;;5.30;2.20;;;25.10;99.90;;;;;;5091559;28;20200;-49
2022/10/06 10:34:08;;;;;;;2.47;2.20;;;25.20;99.90;;;;;;5090191;28;20204;-49
2022/10/06 10:36:39;;;;;;;2.07;1.97;;;24.70;99.90;;;;;;5094441;28;20216;-48
2022/10/06 10:39:14;;;;;;;2.40;1.90;;;24.20;99.90;;;;;;5087970;28;20197;-49
2022/10/06 10:41:46;;;;;;;2.97;2.17;;;23.70;99.90;;;;;;5095824;28;20633;-49
2022/10/06 10:44:27;;;;;;;5.53;2.30;;;23.00;99.90;;;;;;5081061;28;20200;-49
2022/10/06 10:47:00;;;;;;;2.47;2.37;;;22.90;99.90;;;;;;5094077;28;20223;-49
2022/10/06 10:49:29;;;;;;;1.80;1.63;;;22.60;99.90;;;;;;5093069;28;20270;-49
2022/10/06 10:52:03;;;;;;;1.90;1.57;;;22.50;99.90;;;;;;5091495;28;21208;-49
2022/10/06 10:54:39;;;;;;;2.30;1.80;;;22.20;99.90;;;;;;5095073;28;20241;-49
2022/10/06 10:57:13;;;;;;;1.57;1.53;;;22.00;99.90;;;;;;5094994;28;20277;-49
2022/10/06 10:59:56;;;;;;;1.83;1.73;;;21.70;99.90;;;;;;5093804;28;20717;-49
2022/10/06 11:02:23;;;;;;;4.40;1.47;;;21.60;99.90;;;;;;5075087;28;20201;-49
2022/10/06 11:04:54;;;;;;;2.27;1.87;;;21.70;99.90;;;;;;5084607;28;20200;-49
2022/10/06 11:07:28;;;;;;;2.23;1.80;;;21.50;99.90;;;;;;5094922;28;20688;-49
2022/10/06 11:10:00;;;;;;;1.70;1.60;;;21.50;99.90;;;;;;5095224;28;20220;-49
2022/10/06 11:12:47;;;;;;;1.63;1.60;;;21.30;99.90;;;;;;5090282;28;20241;-49
2022/10/06 11:15:22;;;;;;;2.23;2.03;;;21.30;99.90;;;;;;5083256;28;20287;-49
2022/10/06 11:17:50;;;;;;;1.77;1.77;;;21.30;99.90;;;;;;5093751;28;20247;-49
2022/10/06 11:20:39;;;;;;;3.73;2.07;;;21.20;99.90;;;;;;5094813;28;20270;-49
2022/10/06 11:23:33;;;;;;;2.20;1.90;;;20.90;99.90;;;;;;5092006;28;20193;-49
2022/10/06 11:26:09;;;;;;;2.07;1.97;;;20.90;99.90;;;;;;5094360;28;20723;-50
2022/10/06 11:28:43;;;;;;;1.90;1.80;;;21.00;99.90;;;;;;5092707;28;20200;-49
2022/10/06 11:31:26;;;;;;;2.13;1.70;;;21.10;99.90;;;;;;5087631;28;20646;-49
2022/10/06 11:33:54;;;;;;;2.43;2.20;;;21.20;99.90;;;;;;5091231;28;20215;-49
2022/10/06 11:36:30;;;;;;;4.10;2.43;;;21.10;99.90;;;;;;5074134;28;20204;-49
2022/10/06 11:39:03;;;;;;;2.60;2.03;;;21.10;99.90;;;;;;5074295;28;20201;-49
2022/10/06 11:41:36;;;;;;;2.50;2.27;;;21.20;99.90;;;;;;5081707;28;20658;-49
2022/10/06 11:44:09;;;;;;;2.37;2.17;;;21.30;99.90;;;;;;5087735;28;20253;-49
2022/10/06 11:46:42;;;;;;;3.63;2.30;;;21.20;99.90;;;;;;5094208;28;20192;-49
2022/10/06 11:49:46;;;;;;;3.37;2.43;;;21.10;99.90;;;;;;5093246;28;21933;-49
2022/10/06 11:52:35;;;;;;;1.90;1.80;;;21.00;99.90;;;;;;5086444;28;20205;-48
2022/10/06 11:55:12;;;;;;;2.60;1.83;;;20.90;99.90;;;;;;5065001;28;20667;-49
2022/10/06 11:58:10;;;;;;;1.43;1.37;;;20.80;99.90;;;;;;5074048;28;20229;-49
2022/10/06 12:00:49;;;;;;;1.50;1.40;;;20.90;99.90;;;;;;5082896;28;20250;-49
2022/10/06 12:04:03;;;;;;;2.30;2.10;;;20.90;99.90;;;;;;5093501;28;20279;-49
2022/10/06 12:06:59;;;;;;;2.03;1.93;;;20.90;99.90;;;;;;5094053;28;20204;-49
2022/10/06 12:09:51;;;;;;;3.83;1.50;;;20.90;99.90;;;;;;5077430;28;20260;-49
2022/10/06 12:12:53;;;;;;;2.60;2.33;;;20.80;99.90;;;;;;5073620;28;20254;-50
2022/10/06 12:15:33;;;;;;;2.27;1.87;;;20.70;99.90;;;;;;5073362;28;20640;-49
2022/10/06 12:18:08;;;;;;;1.63;1.50;;;20.70;99.90;;;;;;5084661;28;20258;-49
2022/10/06 12:20:50;;;;;;;2.70;1.90;;;20.50;99.90;;;;;;5093829;28;20215;-49
2022/10/06 12:23:23;;;;;;;2.23;2.03;;;20.50;99.90;;;;;;5093454;28;20608;-50
2022/10/06 12:25:55;;;;;;;2.20;1.60;;;20.40;99.90;;;;;;5082494;28;20212;-49
2022/10/06 12:28:35;;;;;;;2.63;2.47;;;20.20;99.90;;;;;;5073225;28;20278;-49
2022/10/06 12:31:21;;;;;;;1.77;1.67;;;20.20;99.90;;;;;;5073219;28;20666;-48
2022/10/06 12:33:49;;;;;;;3.40;1.90;;;20.10;99.90;;;;;;5088181;28;20200;-50
2022/10/06 12:36:21;;;;;;;2.70;2.00;;;20.20;99.90;;;;;;5092218;28;20232;-49
2022/10/06 12:39:04;;;;;;;5.03;2.60;;;20.20;99.90;;;;;;5084354;28;20205;-48
2022/10/06 12:42:00;;;;;;;11.17;2.60;;;20.20;99.90;;;;;;5093484;28;20197;-49
2022/10/06 12:44:30;;;;;;;4.30;2.57;;;20.10;99.90;;;;;;5092826;28;20616;-49
2022/10/06 12:47:00;;;;;;;3.27;2.40;;;20.00;99.90;;;;;;5093018;28;20195;-50
2022/10/06 12:49:45;;;;;;;3.83;2.60;;;20.00;99.90;;;;;;5091030;28;20212;-49
2022/10/06 12:52:42;;;;;;;2.70;2.50;;;20.00;99.90;;;;;;5084033;28;20675;-49
2022/10/06 12:55:34;;;;;;;3.20;2.90;;;20.10;99.90;;;;;;5084316;28;20196;-49
2022/10/06 12:58:01;;;;;;;3.13;2.80;;;20.00;99.90;;;;;;5079336;28;20220;-49
2022/10/06 13:00:33;;;;;;;3.47;2.57;;;19.90;99.90;;;;;;5091899;28;20270;-49
2022/10/06 13:03:05;;;;;;;2.33;2.23;;;19.90;99.90;;;;;;5089072;28;20578;-49
2022/10/06 13:05:33;;;;;;;2.17;2.07;;;19.80;99.90;;;;;;5072703;28;20205;-49
2022/10/06 13:08:03;;;;;;;4.40;2.70;;;19.80;99.90;;;;;;5075373;28;20197;-49
2022/10/06 13:10:31;;;;;;;5.33;2.53;;;19.80;99.90;;;;;;5092749;28;20299;-48
2022/10/06 13:12:58;;;;;;;3.93;2.30;;;19.90;99.90;;;;;;5092723;28;20697;-49
2022/10/06 13:15:29;;;;;;;2.40;2.30;;;19.90;99.90;;;;;;5092515;28;20631;-49
2022/10/06 13:17:59;;;;;;;6.93;2.30;;;20.00;99.90;;;;;;5088351;28;20223;-49
2022/10/06 13:20:35;;;;;;;2.50;2.20;;;20.00;99.90;;;;;;5092636;28;20235;-49